sensor_id;sensor_type;location;lat;lon;timestamp;pressure;altitude;pressure_sealevel;temperature;humidity
55994;BME280;67425;52.126;20.638;2023-02-14T00:01:16;57643.03;;;-144.78;100.00
55994;BME280;67425;52.126;20.638;2023-02-14T00:03:42;57659.63;;;-144.78;100.00
55994;BME280;67425;52.126;20.638;2023-02-14T00:06:09;57647.19;;;-144.78;100.00
55994;BME280;67425;52.126;20.638;2023-02-14T00:08:35;57636.78;;;-144.78;100.00
55994;BME280;67425;52.126;20.638;2023-02-14T00:11:01;57653.41;;;-144.78;100.00
55994;BME280;67425;52.126;20.638;2023-02-14T00:13:27;57632.66;;;-144.78;100.00
55994;BME280;67425;52.126;20.638;2023-02-14T00:15:53;57661.72;;;-144.78;100.00
55994;BME280;67425;52.126;20.638;2023-02-14T00:18:19;57663.78;;;-144.78;100.00
55994;BME280;67425;52.126;20.638;2023-02-14T00:20:44;57663.78;;;-144.78;100.00
55994;BME280;67425;52.126;20.638;2023-02-14T00:23:10;57676.25;;;-144.78;100.00
55994;BME280;67425;52.126;20.638;2023-02-14T00:25:35;57651.34;;;-144.78;100.00
55994;BME280;67425;52.126;20.638;2023-02-14T00:28:00;57634.72;;;-144.78;100.00
55994;BME280;67425;52.126;20.638;2023-02-14T00:30:26;57670.03;;;-144.78;100.00
55994;BME280;67425;52.126;20.638;2023-02-14T00:32:51;57665.88;;;-144.78;100.00
55994;BME280;67425;52.126;20.638;2023-02-14T00:35:16;57663.78;;;-144.78;100.00
55994;BME280;67425;52.126;20.638;2023-02-14T00:37:42;57645.09;;;-144.78;100.00
55994;BME280;67425;52.126;20.638;2023-02-14T00:40:07;57665.88;;;-144.78;100.00
55994;BME280;67425;52.126;20.638;2023-02-14T00:42:33;57665.88;;;-144.78;100.00
55994;BME280;67425;52.126;20.638;2023-02-14T00:44:58;57670.03;;;-144.78;100.00
55994;BME280;67425;52.126;20.638;2023-02-14T00:47:24;57643.03;;;-144.78;100.00
55994;BME280;67425;52.126;20.638;2023-02-14T00:49:49;57647.19;;;-144.78;100.00
55994;BME280;67425;52.126;20.638;2023-02-14T00:52:14;57655.50;;;-144.78;100.00
55994;BME280;67425;52.126;20.638;2023-02-14T00:54:40;57651.34;;;-144.78;100.00
55994;BME280;67425;52.126;20.638;2023-02-14T00:57:05;57659.63;;;-144.78;100.00
55994;BME280;67425;52.126;20.638;2023-02-14T00:59:30;57651.34;;;-144.78;100.00
55994;BME280;67425;52.126;20.638;2023-02-14T01:01:56;57663.78;;;-144.78;100.00
55994;BME280;67425;52.126;20.638;2023-02-14T01:04:21;57659.63;;;-144.78;100.00
55994;BME280;67425;52.126;20.638;2023-02-14T01:06:46;57670.03;;;-144.78;100.00
55994;BME280;67425;52.126;20.638;2023-02-14T01:09:12;57657.56;;;-144.78;100.00
55994;BME280;67425;52.126;20.638;2023-02-14T01:11:38;57667.94;;;-144.78;100.00
55994;BME280;67425;52.126;20.638;2023-02-14T01:14:04;57653.41;;;-144.78;100.00
55994;BME280;67425;52.126;20.638;2023-02-14T01:16:29;57676.25;;;-144.78;100.00
55994;BME280;67425;52.126;20.638;2023-02-14T01:18:57;57655.50;;;-144.78;100.00
55994;BME280;67425;52.126;20.638;2023-02-14T01:23:50;57699.09;;;-144.78;100.00
55994;BME280;67425;52.126;20.638;2023-02-14T01:26:16;57651.34;;;-144.78;100.00
55994;BME280;67425;52.126;20.638;2023-02-14T01:28:42;57682.50;;;-144.78;100.00
55994;BME280;67425;52.126;20.638;2023-02-14T01:33:35;57676.25;;;-144.78;100.00
55994;BME280;67425;52.126;20.638;2023-02-14T01:36:01;57634.72;;;-144.78;100.00
55994;BME280;67425;52.126;20.638;2023-02-14T01:38:26;57659.63;;;-144.78;100.00
55994;BME280;67425;52.126;20.638;2023-02-14T01:40:52;57653.41;;;-144.78;100.00
55994;BME280;67425;52.126;20.638;2023-02-14T01:43:17;57657.56;;;-144.78;100.00
55994;BME280;67425;52.126;20.638;2023-02-14T01:45:42;57647.19;;;-144.78;100.00
55994;BME280;67425;52.126;20.638;2023-02-14T01:48:08;57670.03;;;-144.78;100.00
55994;BME280;67425;52.126;20.638;2023-02-14T01:50:37;57661.72;;;-144.78;100.00
55994;BME280;67425;52.126;20.638;2023-02-14T01:53:25;57670.03;;;-144.78;100.00
55994;BME280;67425;52.126;20.638;2023-02-14T01:56:01;57688.72;;;-144.78;100.00
55994;BME280;67425;52.126;20.638;2023-02-14T01:58:31;57667.94;;;-144.78;100.00
55994;BME280;67425;52.126;20.638;2023-02-14T02:01:00;57688.72;;;-144.78;100.00
55994;BME280;67425;52.126;20.638;2023-02-14T02:03:40;57678.34;;;-144.78;100.00
55994;BME280;67425;52.126;20.638;2023-02-14T02:06:09;57667.94;;;-144.78;100.00
55994;BME280;67425;52.126;20.638;2023-02-14T02:08:39;57667.94;;;-144.78;100.00
55994;BME280;67425;52.126;20.638;2023-02-14T02:11:06;57692.88;;;-144.78;100.00
55994;BME280;67425;52.126;20.638;2023-02-14T02:13:31;57667.94;;;-144.78;100.00
55994;BME280;67425;52.126;20.638;2023-02-14T02:16:08;57678.34;;;-144.78;100.00
55994;BME280;67425;52.126;20.638;2023-02-14T02:21:49;57711.56;;;-144.78;100.00
55994;BME280;67425;52.126;20.638;2023-02-14T02:44:21;57688.72;;;-144.78;100.00
55994;BME280;67425;52.126;20.638;2023-02-14T02:47:04;57688.72;;;-144.78;100.00
55994;BME280;67425;52.126;20.638;2023-02-14T02:59:01;57684.56;;;-144.78;100.00
55994;BME280;67425;52.126;20.638;2023-02-14T03:01:33;57705.34;;;-144.78;100.00
55994;BME280;67425;52.126;20.638;2023-02-14T03:04:02;57692.88;;;-144.78;100.00
55994;BME280;67425;52.126;20.638;2023-02-14T03:06:49;57672.09;;;-144.78;100.00
55994;BME280;67425;52.126;20.638;2023-02-14T03:12:20;57709.50;;;-144.78;100.00
55994;BME280;67425;52.126;20.638;2023-02-14T03:20:53;57717.78;;;-144.78;100.00
55994;BME280;67425;52.126;20.638;2023-02-14T03:23:26;57701.19;;;-144.78;100.00
55994;BME280;67425;52.126;20.638;2023-02-14T03:32:16;57680.41;;;-144.78;100.00
55994;BME280;67425;52.126;20.638;2023-02-14T03:34:46;57701.19;;;-144.78;100.00
55994;BME280;67425;52.126;20.638;2023-02-14T03:37:28;57701.19;;;-144.78;100.00
55994;BME280;67425;52.126;20.638;2023-02-14T03:42:27;57684.56;;;-144.78;100.00
55994;BME280;67425;52.126;20.638;2023-02-14T03:44:55;57684.56;;;-144.78;100.00
55994;BME280;67425;52.126;20.638;2023-02-14T03:47:24;57703.25;;;-144.78;100.00
55994;BME280;67425;52.126;20.638;2023-02-14T03:49:56;57705.34;;;-144.78;100.00
55994;BME280;67425;52.126;20.638;2023-02-14T03:52:23;57688.72;;;-144.78;100.00
55994;BME280;67425;52.126;20.638;2023-02-14T03:54:52;57713.63;;;-144.78;100.00
55994;BME280;67425;52.126;20.638;2023-02-14T03:57:20;57705.34;;;-144.78;100.00
55994;BME280;67425;52.126;20.638;2023-02-14T03:59:48;57726.09;;;-144.78;100.00
55994;BME280;67425;52.126;20.638;2023-02-14T04:02:22;57726.09;;;-144.78;100.00
55994;BME280;67425;52.126;20.638;2023-02-14T04:04:49;57707.41;;;-144.78;100.00
55994;BME280;67425;52.126;20.638;2023-02-14T04:07:19;57699.09;;;-144.78;100.00
55994;BME280;67425;52.126;20.638;2023-02-14T04:09:45;57694.94;;;-144.78;100.00
55994;BME280;67425;52.126;20.638;2023-02-14T04:12:11;57694.94;;;-144.78;100.00
55994;BME280;67425;52.126;20.638;2023-02-14T04:14:37;57692.88;;;-144.78;100.00
55994;BME280;67425;52.126;20.638;2023-02-14T04:17:02;57692.88;;;-144.78;100.00
55994;BME280;67425;52.126;20.638;2023-02-14T04:19:46;57703.25;;;-144.78;100.00
55994;BME280;67425;52.126;20.638;2023-02-14T04:22:12;57686.63;;;-144.78;100.00
55994;BME280;67425;52.126;20.638;2023-02-14T04:24:37;57692.88;;;-144.78;100.00
55994;BME280;67425;52.126;20.638;2023-02-14T04:27:03;57692.88;;;-144.78;100.00
55994;BME280;67425;52.126;20.638;2023-02-14T04:29:38;57711.56;;;-144.78;100.00
55994;BME280;67425;52.126;20.638;2023-02-14T04:32:06;57705.34;;;-144.78;100.00
55994;BME280;67425;52.126;20.638;2023-02-14T04:34:32;57715.72;;;-144.78;100.00
55994;BME280;67425;52.126;20.638;2023-02-14T04:36:57;57721.94;;;-144.78;100.00
55994;BME280;67425;52.126;20.638;2023-02-14T04:39:22;57705.34;;;-144.78;100.00
55994;BME280;67425;52.126;20.638;2023-02-14T04:41:48;57688.72;;;-144.78;100.00
55994;BME280;67425;52.126;20.638;2023-02-14T04:44:13;57701.19;;;-144.78;100.00
55994;BME280;67425;52.126;20.638;2023-02-14T04:46:39;57709.50;;;-144.78;100.00
55994;BME280;67425;52.126;20.638;2023-02-14T04:49:04;57697.03;;;-144.78;100.00
55994;BME280;67425;52.126;20.638;2023-02-14T04:51:30;57717.78;;;-144.78;100.00
55994;BME280;67425;52.126;20.638;2023-02-14T04:53:55;57717.78;;;-144.78;100.00
55994;BME280;67425;52.126;20.638;2023-02-14T04:56:20;57711.56;;;-144.78;100.00
55994;BME280;67425;52.126;20.638;2023-02-14T04:58:46;57707.41;;;-144.78;100.00
55994;BME280;67425;52.126;20.638;2023-02-14T05:01:11;57701.19;;;-144.78;100.00
55994;BME280;67425;52.126;20.638;2023-02-14T05:03:36;57711.56;;;-144.78;100.00
55994;BME280;67425;52.126;20.638;2023-02-14T05:06:02;57709.50;;;-144.78;100.00
55994;BME280;67425;52.126;20.638;2023-02-14T05:08:27;57709.50;;;-144.78;100.00
55994;BME280;67425;52.126;20.638;2023-02-14T05:10:53;57707.41;;;-144.78;100.00
55994;BME280;67425;52.126;20.638;2023-02-14T05:13:19;57724.03;;;-144.78;100.00
55994;BME280;67425;52.126;20.638;2023-02-14T05:15:44;57697.03;;;-144.78;100.00
55994;BME280;67425;52.126;20.638;2023-02-14T05:18:10;57705.34;;;-144.78;100.00
55994;BME280;67425;52.126;20.638;2023-02-14T05:20:36;57707.41;;;-144.78;100.00
55994;BME280;67425;52.126;20.638;2023-02-14T05:23:01;57717.78;;;-144.78;100.00
55994;BME280;67425;52.126;20.638;2023-02-14T05:25:28;57709.50;;;-144.78;100.00
55994;BME280;67425;52.126;20.638;2023-02-14T05:27:54;57699.09;;;-144.78;100.00
55994;BME280;67425;52.126;20.638;2023-02-14T05:30:19;57709.50;;;-144.78;100.00
55994;BME280;67425;52.126;20.638;2023-02-14T05:32:50;57713.63;;;-144.78;100.00
55994;BME280;67425;52.126;20.638;2023-02-14T05:35:16;57717.78;;;-144.78;100.00
55994;BME280;67425;52.126;20.638;2023-02-14T05:37:41;57717.78;;;-144.78;100.00
55994;BME280;67425;52.126;20.638;2023-02-14T05:40:07;57717.78;;;-144.78;100.00
55994;BME280;67425;52.126;20.638;2023-02-14T05:42:33;57726.09;;;-144.78;100.00
55994;BME280;67425;52.126;20.638;2023-02-14T05:44:58;57717.78;;;-144.78;100.00
55994;BME280;67425;52.126;20.638;2023-02-14T05:47:24;57738.56;;;-144.78;100.00
55994;BME280;67425;52.126;20.638;2023-02-14T05:49:49;57724.03;;;-144.78;100.00
55994;BME280;67425;52.126;20.638;2023-02-14T05:52:14;57701.19;;;-144.78;100.00
55994;BME280;67425;52.126;20.638;2023-02-14T05:54:40;57684.56;;;-144.78;100.00
55994;BME280;67425;52.126;20.638;2023-02-14T05:57:05;57707.41;;;-144.78;100.00
55994;BME280;67425;52.126;20.638;2023-02-14T05:59:30;57705.34;;;-144.78;100.00
55994;BME280;67425;52.126;20.638;2023-02-14T06:01:56;57705.34;;;-144.78;100.00
55994;BME280;67425;52.126;20.638;2023-02-14T06:04:21;57726.09;;;-144.78;100.00
55994;BME280;67425;52.126;20.638;2023-02-14T06:06:46;57709.50;;;-144.78;100.00
55994;BME280;67425;52.126;20.638;2023-02-14T06:09:12;57701.19;;;-144.78;100.00
55994;BME280;67425;52.126;20.638;2023-02-14T06:11:37;57709.50;;;-144.78;100.00
55994;BME280;67425;52.126;20.638;2023-02-14T06:14:02;57705.34;;;-144.78;100.00
55994;BME280;67425;52.126;20.638;2023-02-14T06:16:28;57730.25;;;-144.78;100.00
55994;BME280;67425;52.126;20.638;2023-02-14T06:18:53;57732.34;;;-144.78;100.00
55994;BME280;67425;52.126;20.638;2023-02-14T06:21:18;57701.19;;;-144.78;100.00
55994;BME280;67425;52.126;20.638;2023-02-14T06:23:44;57699.09;;;-144.78;100.00
55994;BME280;67425;52.126;20.638;2023-02-14T06:26:09;57701.19;;;-144.78;100.00
55994;BME280;67425;52.126;20.638;2023-02-14T06:28:34;57717.78;;;-144.78;100.00
55994;BME280;67425;52.126;20.638;2023-02-14T06:31:00;57707.41;;;-144.78;100.00
55994;BME280;67425;52.126;20.638;2023-02-14T06:33:25;57713.63;;;-144.78;100.00
55994;BME280;67425;52.126;20.638;2023-02-14T06:35:52;57726.09;;;-144.78;100.00
55994;BME280;67425;52.126;20.638;2023-02-14T06:38:18;57707.41;;;-144.78;100.00
55994;BME280;67425;52.126;20.638;2023-02-14T06:40:43;57711.56;;;-144.78;100.00
55994;BME280;67425;52.126;20.638;2023-02-14T06:43:08;57713.63;;;-144.78;100.00
55994;BME280;67425;52.126;20.638;2023-02-14T06:45:34;57744.78;;;-144.78;100.00
55994;BME280;67425;52.126;20.638;2023-02-14T06:47:59;57707.41;;;-144.78;100.00
55994;BME280;67425;52.126;20.638;2023-02-14T06:50:24;57715.72;;;-144.78;100.00
55994;BME280;67425;52.126;20.638;2023-02-14T06:52:50;57711.56;;;-144.78;100.00
55994;BME280;67425;52.126;20.638;2023-02-14T06:55:16;57709.50;;;-144.78;100.00
55994;BME280;67425;52.126;20.638;2023-02-14T06:57:41;57759.34;;;-144.78;100.00
55994;BME280;67425;52.126;20.638;2023-02-14T07:00:07;57711.56;;;-144.78;100.00
55994;BME280;67425;52.126;20.638;2023-02-14T07:02:34;57742.72;;;-144.78;100.00
55994;BME280;67425;52.126;20.638;2023-02-14T07:04:59;57738.56;;;-144.78;100.00
55994;BME280;67425;52.126;20.638;2023-02-14T07:07:25;57701.19;;;-144.78;100.00
55994;BME280;67425;52.126;20.638;2023-02-14T07:09:50;57697.03;;;-144.78;100.00
55994;BME280;67425;52.126;20.638;2023-02-14T07:12:16;57726.09;;;-144.78;100.00
55994;BME280;67425;52.126;20.638;2023-02-14T07:14:41;57753.09;;;-144.78;100.00
55994;BME280;67425;52.126;20.638;2023-02-14T07:17:06;57734.41;;;-144.78;100.00
55994;BME280;67425;52.126;20.638;2023-02-14T07:19:32;57711.56;;;-144.78;100.00
55994;BME280;67425;52.126;20.638;2023-02-14T07:21:57;57711.56;;;-144.78;100.00
55994;BME280;67425;52.126;20.638;2023-02-14T07:24:22;57738.56;;;-144.78;100.00
55994;BME280;67425;52.126;20.638;2023-02-14T07:26:48;57721.94;;;-144.78;100.00
55994;BME280;67425;52.126;20.638;2023-02-14T07:29:13;57703.25;;;-144.78;100.00
55994;BME280;67425;52.126;20.638;2023-02-14T07:31:39;57690.78;;;-144.78;100.00
55994;BME280;67425;52.126;20.638;2023-02-14T07:34:04;57707.41;;;-144.78;100.00
55994;BME280;67425;52.126;20.638;2023-02-14T07:36:29;57709.50;;;-144.78;100.00
55994;BME280;67425;52.126;20.638;2023-02-14T07:38:55;57715.72;;;-144.78;100.00
55994;BME280;67425;52.126;20.638;2023-02-14T07:41:21;57682.50;;;-144.78;100.00
55994;BME280;67425;52.126;20.638;2023-02-14T07:43:47;57713.63;;;-144.78;100.00
55994;BME280;67425;52.126;20.638;2023-02-14T07:46:12;57721.94;;;-144.78;100.00
55994;BME280;67425;52.126;20.638;2023-02-14T07:48:37;57715.72;;;-144.78;100.00
55994;BME280;67425;52.126;20.638;2023-02-14T07:51:03;57734.41;;;-144.78;100.00
55994;BME280;67425;52.126;20.638;2023-02-14T07:53:29;57709.50;;;-144.78;100.00
55994;BME280;67425;52.126;20.638;2023-02-14T07:55:55;57705.34;;;-144.78;100.00
55994;BME280;67425;52.126;20.638;2023-02-14T07:58:20;57686.63;;;-144.78;100.00
55994;BME280;67425;52.126;20.638;2023-02-14T08:00:46;57699.09;;;-144.78;100.00
55994;BME280;67425;52.126;20.638;2023-02-14T08:03:12;57703.25;;;-144.78;100.00
55994;BME280;67425;52.126;20.638;2023-02-14T08:05:37;57711.56;;;-144.78;100.00
55994;BME280;67425;52.126;20.638;2023-02-14T08:08:03;57697.03;;;-144.78;100.00
55994;BME280;67425;52.126;20.638;2023-02-14T08:10:28;57701.19;;;-144.78;100.00
55994;BME280;67425;52.126;20.638;2023-02-14T08:12:54;57711.56;;;-144.78;100.00
55994;BME280;67425;52.126;20.638;2023-02-14T08:15:30;57724.03;;;-144.78;100.00
55994;BME280;67425;52.126;20.638;2023-02-14T08:18:14;57707.41;;;-144.78;100.00
55994;BME280;67425;52.126;20.638;2023-02-14T08:20:40;57728.19;;;-144.78;100.00
55994;BME280;67425;52.126;20.638;2023-02-14T08:23:06;57709.50;;;-144.78;100.00
55994;BME280;67425;52.126;20.638;2023-02-14T08:25:31;57711.56;;;-144.78;100.00
55994;BME280;67425;52.126;20.638;2023-02-14T08:27:56;57730.25;;;-144.78;100.00
55994;BME280;67425;52.126;20.638;2023-02-14T08:30:22;57719.88;;;-144.78;100.00
55994;BME280;67425;52.126;20.638;2023-02-14T08:32:48;57703.25;;;-144.78;100.00
55994;BME280;67425;52.126;20.638;2023-02-14T08:35:13;57709.50;;;-144.78;100.00
55994;BME280;67425;52.126;20.638;2023-02-14T08:37:38;57724.03;;;-144.78;100.00
55994;BME280;67425;52.126;20.638;2023-02-14T08:40:04;57726.09;;;-144.78;100.00
55994;BME280;67425;52.126;20.638;2023-02-14T08:42:30;57694.94;;;-144.78;100.00
55994;BME280;67425;52.126;20.638;2023-02-14T08:44:56;57719.88;;;-144.78;100.00
55994;BME280;67425;52.126;20.638;2023-02-14T08:47:21;57728.19;;;-144.78;100.00
55994;BME280;67425;52.126;20.638;2023-02-14T08:49:46;57699.09;;;-144.78;100.00
55994;BME280;67425;52.126;20.638;2023-02-14T08:52:12;57692.88;;;-144.78;100.00
55994;BME280;67425;52.126;20.638;2023-02-14T08:54:37;57719.88;;;-144.78;100.00
55994;BME280;67425;52.126;20.638;2023-02-14T08:57:02;57711.56;;;-144.78;100.00
55994;BME280;67425;52.126;20.638;2023-02-14T08:59:28;57726.09;;;-144.78;100.00
55994;BME280;67425;52.126;20.638;2023-02-14T09:01:53;57697.03;;;-144.78;100.00
55994;BME280;67425;52.126;20.638;2023-02-14T09:04:18;57736.50;;;-144.78;100.00
55994;BME280;67425;52.126;20.638;2023-02-14T09:06:44;57717.78;;;-144.78;100.00
55994;BME280;67425;52.126;20.638;2023-02-14T09:09:09;57724.03;;;-144.78;100.00
55994;BME280;67425;52.126;20.638;2023-02-14T09:11:35;57711.56;;;-144.78;100.00
55994;BME280;67425;52.126;20.638;2023-02-14T09:14:01;57717.78;;;-144.78;100.00
55994;BME280;67425;52.126;20.638;2023-02-14T09:16:26;57703.25;;;-144.78;100.00
55994;BME280;67425;52.126;20.638;2023-02-14T09:18:52;57721.94;;;-144.78;100.00
55994;BME280;67425;52.126;20.638;2023-02-14T09:21:25;57711.56;;;-144.78;100.00
55994;BME280;67425;52.126;20.638;2023-02-14T09:23:51;57713.63;;;-144.78;100.00
55994;BME280;67425;52.126;20.638;2023-02-14T09:26:18;57759.34;;;-144.78;100.00
55994;BME280;67425;52.126;20.638;2023-02-14T09:28:43;57707.41;;;-144.78;100.00
55994;BME280;67425;52.126;20.638;2023-02-14T09:33:41;57697.03;;;-144.78;100.00
55994;BME280;67425;52.126;20.638;2023-02-14T09:36:07;57719.88;;;-144.78;100.00
55994;BME280;67425;52.126;20.638;2023-02-14T09:38:44;57699.09;;;-144.78;100.00
55994;BME280;67425;52.126;20.638;2023-02-14T09:46:49;57703.25;;;-144.78;100.00
55994;BME280;67425;52.126;20.638;2023-02-14T09:49:18;57699.09;;;-144.78;100.00
55994;BME280;67425;52.126;20.638;2023-02-14T09:51:49;57713.63;;;-144.78;100.00
55994;BME280;67425;52.126;20.638;2023-02-14T09:54:21;57701.19;;;-144.78;100.00
55994;BME280;67425;52.126;20.638;2023-02-14T09:57:00;57684.56;;;-144.78;100.00
55994;BME280;67425;52.126;20.638;2023-02-14T09:59:43;57721.94;;;-144.78;100.00
55994;BME280;67425;52.126;20.638;2023-02-14T10:05:16;57734.41;;;-144.78;100.00
55994;BME280;67425;52.126;20.638;2023-02-14T10:15:33;57701.19;;;-144.78;100.00
55994;BME280;67425;52.126;20.638;2023-02-14T10:18:19;57707.41;;;-144.78;100.00
55994;BME280;67425;52.126;20.638;2023-02-14T10:20:49;57699.09;;;-144.78;100.00
55994;BME280;67425;52.126;20.638;2023-02-14T10:25:50;57682.50;;;-144.78;100.00
55994;BME280;67425;52.126;20.638;2023-02-14T10:28:25;57699.09;;;-144.78;100.00
55994;BME280;67425;52.126;20.638;2023-02-14T10:33:28;57724.03;;;-144.78;100.00
55994;BME280;67425;52.126;20.638;2023-02-14T10:36:03;57684.56;;;-144.78;100.00
55994;BME280;67425;52.126;20.638;2023-02-14T10:46:26;57697.03;;;-144.78;100.00
55994;BME280;67425;52.126;20.638;2023-02-14T10:52:14;57709.50;;;-144.78;100.00
55994;BME280;67425;52.126;20.638;2023-02-14T10:54:45;57690.78;;;-144.78;100.00
55994;BME280;67425;52.126;20.638;2023-02-14T10:57:33;57680.41;;;-144.78;100.00
55994;BME280;67425;52.126;20.638;2023-02-14T11:00:46;57694.94;;;-144.78;100.00
55994;BME280;67425;52.126;20.638;2023-02-14T11:02:56;57703.25;;;-144.78;100.00
55994;BME280;67425;52.126;20.638;2023-02-14T11:05:43;57726.09;;;-144.78;100.00
55994;BME280;67425;52.126;20.638;2023-02-14T11:10:38;57686.63;;;-144.78;100.00
55994;BME280;67425;52.126;20.638;2023-02-14T11:13:30;57678.34;;;-144.78;100.00
55994;BME280;67425;52.126;20.638;2023-02-14T11:16:08;57688.72;;;-144.78;100.00
55994;BME280;67425;52.126;20.638;2023-02-14T11:18:35;57694.94;;;-144.78;100.00
55994;BME280;67425;52.126;20.638;2023-02-14T11:26:04;57692.88;;;-144.78;100.00
55994;BME280;67425;52.126;20.638;2023-02-14T11:28:33;57688.72;;;-144.78;100.00
55994;BME280;67425;52.126;20.638;2023-02-14T11:30:59;57676.25;;;-144.78;100.00
55994;BME280;67425;52.126;20.638;2023-02-14T11:33:37;57682.50;;;-144.78;100.00
55994;BME280;67425;52.126;20.638;2023-02-14T11:36:08;57690.78;;;-144.78;100.00
55994;BME280;67425;52.126;20.638;2023-02-14T11:38:36;57690.78;;;-144.78;100.00
55994;BME280;67425;52.126;20.638;2023-02-14T11:41:07;57697.03;;;-144.78;100.00
55994;BME280;67425;52.126;20.638;2023-02-14T11:43:41;57674.19;;;-144.78;100.00
55994;BME280;67425;52.126;20.638;2023-02-14T11:48:53;57678.34;;;-144.78;100.00
55994;BME280;67425;52.126;20.638;2023-02-14T11:51:25;57709.50;;;-144.78;100.00
55994;BME280;67425;52.126;20.638;2023-02-14T11:53:53;57684.56;;;-144.78;100.00
55994;BME280;67425;52.126;20.638;2023-02-14T11:56:42;57674.19;;;-144.78;100.00
55994;BME280;67425;52.126;20.638;2023-02-14T11:59:10;57670.03;;;-144.78;100.00
55994;BME280;67425;52.126;20.638;2023-02-14T12:01:37;57697.03;;;-144.78;100.00
55994;BME280;67425;52.126;20.638;2023-02-14T12:04:26;57690.78;;;-144.78;100.00
55994;BME280;67425;52.126;20.638;2023-02-14T12:07:12;57661.72;;;-144.78;100.00
55994;BME280;67425;52.126;20.638;2023-02-14T12:09:38;57667.94;;;-144.78;100.00
55994;BME280;67425;52.126;20.638;2023-02-14T12:14:41;57672.09;;;-144.78;100.00
55994;BME280;67425;52.126;20.638;2023-02-14T12:19:52;57676.25;;;-144.78;100.00
55994;BME280;67425;52.126;20.638;2023-02-14T12:22:21;57676.25;;;-144.78;100.00
55994;BME280;67425;52.126;20.638;2023-02-14T12:25:05;57651.34;;;-144.78;100.00
55994;BME280;67425;52.126;20.638;2023-02-14T12:27:53;57670.03;;;-144.78;100.00
55994;BME280;67425;52.126;20.638;2023-02-14T12:30:21;57672.09;;;-144.78;100.00
55994;BME280;67425;52.126;20.638;2023-02-14T12:32:50;57690.78;;;-144.78;100.00
55994;BME280;67425;52.126;20.638;2023-02-14T12:35:35;57680.41;;;-144.78;100.00
55994;BME280;67425;52.126;20.638;2023-02-14T12:40:56;57692.88;;;-144.78;100.00
55994;BME280;67425;52.126;20.638;2023-02-14T12:49:41;57663.78;;;-144.78;100.00
55994;BME280;67425;52.126;20.638;2023-02-14T13:03:07;57657.56;;;-144.78;100.00
55994;BME280;67425;52.126;20.638;2023-02-14T13:11:14;57659.63;;;-144.78;100.00
55994;BME280;67425;52.126;20.638;2023-02-14T13:14:28;57636.78;;;-144.78;100.00
55994;BME280;67425;52.126;20.638;2023-02-14T13:21:54;57630.56;;;-144.78;100.00
55994;BME280;67425;52.126;20.638;2023-02-14T13:24:23;57657.56;;;-144.78;100.00
55994;BME280;67425;52.126;20.638;2023-02-14T13:26:57;57655.50;;;-144.78;100.00
55994;BME280;67425;52.126;20.638;2023-02-14T13:29:26;57672.09;;;-144.78;100.00
55994;BME280;67425;52.126;20.638;2023-02-14T13:31:56;57659.63;;;-144.78;100.00
55994;BME280;67425;52.126;20.638;2023-02-14T13:36:57;57676.25;;;-144.78;100.00
55994;BME280;67425;52.126;20.638;2023-02-14T13:41:53;57657.56;;;-144.78;100.00
55994;BME280;67425;52.126;20.638;2023-02-14T13:44:41;57653.41;;;-144.78;100.00
55994;BME280;67425;52.126;20.638;2023-02-14T13:47:17;57640.94;;;-144.78;100.00
55994;BME280;67425;52.126;20.638;2023-02-14T13:50:16;57634.72;;;-144.78;100.00
55994;BME280;67425;52.126;20.638;2023-02-14T13:52:43;57661.72;;;-144.78;100.00
55994;BME280;67425;52.126;20.638;2023-02-14T13:55:16;57655.50;;;-144.78;100.00
55994;BME280;67425;52.126;20.638;2023-02-14T13:57:43;57657.56;;;-144.78;100.00
55994;BME280;67425;52.126;20.638;2023-02-14T14:02:43;57655.50;;;-144.78;100.00
55994;BME280;67425;52.126;20.638;2023-02-14T14:13:57;57651.34;;;-144.78;100.00
55994;BME280;67425;52.126;20.638;2023-02-14T14:19:06;57638.88;;;-144.78;100.00
55994;BME280;67425;52.126;20.638;2023-02-14T14:22:02;57657.56;;;-144.78;100.00
55994;BME280;67425;52.126;20.638;2023-02-14T14:27:05;57649.25;;;-144.78;100.00
55994;BME280;67425;52.126;20.638;2023-02-14T14:29:44;57634.72;;;-144.78;100.00
55994;BME280;67425;52.126;20.638;2023-02-14T14:34:50;57661.72;;;-144.78;100.00
55994;BME280;67425;52.126;20.638;2023-02-14T14:37:19;57649.25;;;-144.78;100.00
55994;BME280;67425;52.126;20.638;2023-02-14T14:39:50;57638.88;;;-144.78;100.00
55994;BME280;67425;52.126;20.638;2023-02-14T14:42:16;57638.88;;;-144.78;100.00
55994;BME280;67425;52.126;20.638;2023-02-14T14:45:00;57655.50;;;-144.78;100.00
55994;BME280;67425;52.126;20.638;2023-02-14T14:47:30;57636.78;;;-144.78;100.00
55994;BME280;67425;52.126;20.638;2023-02-14T14:50:02;57651.34;;;-144.78;100.00
55994;BME280;67425;52.126;20.638;2023-02-14T14:52:35;57645.09;;;-144.78;100.00
55994;BME280;67425;52.126;20.638;2023-02-14T14:55:04;57651.34;;;-144.78;100.00
55994;BME280;67425;52.126;20.638;2023-02-14T14:57:30;57640.94;;;-144.78;100.00
55994;BME280;67425;52.126;20.638;2023-02-14T15:00:04;57659.63;;;-144.78;100.00
55994;BME280;67425;52.126;20.638;2023-02-14T15:02:32;57657.56;;;-144.78;100.00
55994;BME280;67425;52.126;20.638;2023-02-14T15:05:12;57659.63;;;-144.78;100.00
55994;BME280;67425;52.126;20.638;2023-02-14T15:07:37;57670.03;;;-144.78;100.00
55994;BME280;67425;52.126;20.638;2023-02-14T15:10:03;57651.34;;;-144.78;100.00